sensor_id;sensor_type;location;lat;lon;timestamp;P1;durP1;ratioP1;P2;durP2;ratioP2
65759;SDS011;52496;51.082;5.066;2023-11-21T00:01:46;27.38;;;11.82;;
65759;SDS011;52496;51.082;5.066;2023-11-21T00:04:17;27.75;;;11.77;;
65759;SDS011;52496;51.082;5.066;2023-11-21T00:06:48;29.52;;;11.75;;
65759;SDS011;52496;51.082;5.066;2023-11-21T00:09:18;26.13;;;11.27;;
65759;SDS011;52496;51.082;5.066;2023-11-21T00:11:49;26.38;;;12.40;;
65759;SDS011;52496;51.082;5.066;2023-11-21T00:14:21;30.63;;;12.00;;
65759;SDS011;52496;51.082;5.066;2023-11-21T00:16:51;28.10;;;12.77;;
65759;SDS011;52496;51.082;5.066;2023-11-21T00:19:22;30.67;;;11.77;;
65759;SDS011;52496;51.082;5.066;2023-11-21T00:21:52;25.40;;;11.82;;
65759;SDS011;52496;51.082;5.066;2023-11-21T00:24:23;40.90;;;15.27;;
65759;SDS011;52496;51.082;5.066;2023-11-21T00:26:54;33.47;;;12.55;;
65759;SDS011;52496;51.082;5.066;2023-11-21T00:29:26;29.30;;;12.70;;
65759;SDS011;52496;51.082;5.066;2023-11-21T00:31:56;31.10;;;12.43;;
65759;SDS011;52496;51.082;5.066;2023-11-21T00:34:27;28.88;;;11.43;;
65759;SDS011;52496;51.082;5.066;2023-11-21T00:36:57;30.30;;;13.32;;
65759;SDS011;52496;51.082;5.066;2023-11-21T00:39:28;34.20;;;14.20;;
65759;SDS011;52496;51.082;5.066;2023-11-21T00:41:58;28.75;;;12.77;;
65759;SDS011;52496;51.082;5.066;2023-11-21T00:44:30;29.75;;;13.23;;
65759;SDS011;52496;51.082;5.066;2023-11-21T00:47:01;27.63;;;11.73;;
65759;SDS011;52496;51.082;5.066;2023-11-21T00:49:33;22.88;;;10.75;;
65759;SDS011;52496;51.082;5.066;2023-11-21T00:52:03;28.20;;;12.38;;
65759;SDS011;52496;51.082;5.066;2023-11-21T00:54:34;27.40;;;12.18;;
65759;SDS011;52496;51.082;5.066;2023-11-21T00:57:06;29.15;;;13.38;;
65759;SDS011;52496;51.082;5.066;2023-11-21T00:59:37;29.42;;;12.70;;
65759;SDS011;52496;51.082;5.066;2023-11-21T01:02:08;29.00;;;12.73;;
65759;SDS011;52496;51.082;5.066;2023-11-21T01:04:40;30.00;;;12.50;;
65759;SDS011;52496;51.082;5.066;2023-11-21T01:07:11;39.88;;;14.13;;
65759;SDS011;52496;51.082;5.066;2023-11-21T01:09:41;33.72;;;12.05;;
65759;SDS011;52496;51.082;5.066;2023-11-21T01:12:14;48.13;;;14.73;;
65759;SDS011;52496;51.082;5.066;2023-11-21T01:14:45;53.92;;;14.63;;
65759;SDS011;52496;51.082;5.066;2023-11-21T01:17:15;63.53;;;15.55;;
65759;SDS011;52496;51.082;5.066;2023-11-21T01:19:47;77.18;;;17.85;;
65759;SDS011;52496;51.082;5.066;2023-11-21T01:22:17;82.75;;;16.83;;
65759;SDS011;52496;51.082;5.066;2023-11-21T01:24:53;121.07;;;24.27;;
65759;SDS011;52496;51.082;5.066;2023-11-21T01:27:23;86.90;;;18.88;;
65759;SDS011;52496;51.082;5.066;2023-11-21T01:29:54;87.22;;;16.58;;
65759;SDS011;52496;51.082;5.066;2023-11-21T01:32:24;130.18;;;21.73;;
65759;SDS011;52496;51.082;5.066;2023-11-21T01:34:55;115.20;;;21.50;;
65759;SDS011;52496;51.082;5.066;2023-11-21T01:37:26;85.65;;;18.52;;
65759;SDS011;52496;51.082;5.066;2023-11-21T01:39:58;165.75;;;22.52;;
65759;SDS011;52496;51.082;5.066;2023-11-21T01:42:31;192.63;;;27.35;;
65759;SDS011;52496;51.082;5.066;2023-11-21T01:45:02;87.57;;;17.60;;
65759;SDS011;52496;51.082;5.066;2023-11-21T01:47:34;117.15;;;21.25;;
65759;SDS011;52496;51.082;5.066;2023-11-21T01:50:06;92.47;;;16.73;;
65759;SDS011;52496;51.082;5.066;2023-11-21T01:52:38;141.07;;;24.73;;
65759;SDS011;52496;51.082;5.066;2023-11-21T01:55:09;115.70;;;23.58;;
65759;SDS011;52496;51.082;5.066;2023-11-21T01:57:41;115.38;;;20.85;;
65759;SDS011;52496;51.082;5.066;2023-11-21T02:21:58;170.88;;;23.20;;
65759;SDS011;52496;51.082;5.066;2023-11-21T02:24:33;145.07;;;22.77;;
65759;SDS011;52496;51.082;5.066;2023-11-21T02:27:03;154.65;;;25.98;;
65759;SDS011;52496;51.082;5.066;2023-11-21T02:29:34;180.18;;;27.52;;
65759;SDS011;52496;51.082;5.066;2023-11-21T02:32:05;99.47;;;19.77;;
65759;SDS011;52496;51.082;5.066;2023-11-21T02:34:35;105.15;;;22.83;;
65759;SDS011;52496;51.082;5.066;2023-11-21T02:37:06;129.48;;;22.58;;
65759;SDS011;52496;51.082;5.066;2023-11-21T02:39:37;191.30;;;32.10;;
65759;SDS011;52496;51.082;5.066;2023-11-21T02:42:08;103.25;;;21.27;;
65759;SDS011;52496;51.082;5.066;2023-11-21T02:44:38;170.80;;;28.80;;
65759;SDS011;52496;51.082;5.066;2023-11-21T02:47:09;185.13;;;29.42;;
65759;SDS011;52496;51.082;5.066;2023-11-21T02:49:40;74.50;;;17.45;;
65759;SDS011;52496;51.082;5.066;2023-11-21T02:52:10;100.85;;;20.80;;
65759;SDS011;52496;51.082;5.066;2023-11-21T02:54:41;144.65;;;24.48;;
65759;SDS011;52496;51.082;5.066;2023-11-21T02:57:12;72.28;;;19.30;;
65759;SDS011;52496;51.082;5.066;2023-11-21T02:59:43;105.55;;;18.60;;
65759;SDS011;52496;51.082;5.066;2023-11-21T03:02:14;160.60;;;24.48;;
65759;SDS011;52496;51.082;5.066;2023-11-21T03:04:46;120.18;;;20.88;;
65759;SDS011;52496;51.082;5.066;2023-11-21T03:07:18;79.97;;;16.52;;
65759;SDS011;52496;51.082;5.066;2023-11-21T03:09:51;181.65;;;28.42;;
65759;SDS011;52496;51.082;5.066;2023-11-21T03:12:22;157.68;;;25.40;;
65759;SDS011;52496;51.082;5.066;2023-11-21T03:14:53;175.95;;;25.85;;
65759;SDS011;52496;51.082;5.066;2023-11-21T03:17:24;105.60;;;18.08;;
65759;SDS011;52496;51.082;5.066;2023-11-21T03:19:54;175.88;;;25.65;;
65759;SDS011;52496;51.082;5.066;2023-11-21T03:22:25;109.55;;;17.50;;
65759;SDS011;52496;51.082;5.066;2023-11-21T03:24:56;124.90;;;18.52;;
65759;SDS011;52496;51.082;5.066;2023-11-21T03:27:27;123.32;;;21.10;;
65759;SDS011;52496;51.082;5.066;2023-11-21T03:29:57;35.45;;;11.52;;
65759;SDS011;52496;51.082;5.066;2023-11-21T03:32:28;142.60;;;21.60;;
65759;SDS011;52496;51.082;5.066;2023-11-21T03:34:59;115.40;;;18.60;;
65759;SDS011;52496;51.082;5.066;2023-11-21T03:37:30;86.57;;;14.98;;
65759;SDS011;52496;51.082;5.066;2023-11-21T03:40:01;135.88;;;19.30;;
65759;SDS011;52496;51.082;5.066;2023-11-21T03:42:34;140.23;;;20.60;;
65759;SDS011;52496;51.082;5.066;2023-11-21T03:45:08;190.13;;;23.00;;
65759;SDS011;52496;51.082;5.066;2023-11-21T03:47:39;70.55;;;14.30;;
65759;SDS011;52496;51.082;5.066;2023-11-21T03:50:10;149.57;;;20.98;;
65759;SDS011;52496;51.082;5.066;2023-11-21T03:52:41;48.50;;;13.07;;
65759;SDS011;52496;51.082;5.066;2023-11-21T03:55:11;37.78;;;14.18;;
65759;SDS011;52496;51.082;5.066;2023-11-21T03:57:42;62.17;;;13.88;;
65759;SDS011;52496;51.082;5.066;2023-11-21T04:00:12;149.27;;;21.17;;
65759;SDS011;52496;51.082;5.066;2023-11-21T04:02:43;85.43;;;15.88;;
65759;SDS011;52496;51.082;5.066;2023-11-21T04:05:15;74.55;;;17.90;;
65759;SDS011;52496;51.082;5.066;2023-11-21T04:07:45;86.55;;;17.65;;
65759;SDS011;52496;51.082;5.066;2023-11-21T04:10:16;39.08;;;13.10;;
65759;SDS011;52496;51.082;5.066;2023-11-21T04:12:46;74.15;;;15.85;;
65759;SDS011;52496;51.082;5.066;2023-11-21T04:15:18;45.22;;;14.15;;
65759;SDS011;52496;51.082;5.066;2023-11-21T04:17:49;39.05;;;13.68;;
65759;SDS011;52496;51.082;5.066;2023-11-21T04:20:19;84.65;;;16.85;;
65759;SDS011;52496;51.082;5.066;2023-11-21T04:22:50;95.40;;;17.05;;
65759;SDS011;52496;51.082;5.066;2023-11-21T04:25:21;66.18;;;16.67;;
65759;SDS011;52496;51.082;5.066;2023-11-21T04:27:53;41.33;;;14.50;;
65759;SDS011;52496;51.082;5.066;2023-11-21T04:30:24;167.55;;;22.58;;
65759;SDS011;52496;51.082;5.066;2023-11-21T04:32:54;106.68;;;22.08;;
65759;SDS011;52496;51.082;5.066;2023-11-21T04:35:25;50.38;;;15.80;;
65759;SDS011;52496;51.082;5.066;2023-11-21T04:37:55;66.10;;;14.80;;
65759;SDS011;52496;51.082;5.066;2023-11-21T04:40:27;59.67;;;16.92;;
65759;SDS011;52496;51.082;5.066;2023-11-21T04:42:58;51.13;;;15.40;;
65759;SDS011;52496;51.082;5.066;2023-11-21T04:45:28;49.47;;;15.63;;
65759;SDS011;52496;51.082;5.066;2023-11-21T04:47:59;100.53;;;22.73;;
65759;SDS011;52496;51.082;5.066;2023-11-21T04:50:30;84.22;;;18.95;;
65759;SDS011;52496;51.082;5.066;2023-11-21T04:53:01;89.93;;;20.80;;
65759;SDS011;52496;51.082;5.066;2023-11-21T04:55:31;146.25;;;24.52;;
65759;SDS011;52496;51.082;5.066;2023-11-21T04:58:02;36.67;;;13.45;;
65759;SDS011;52496;51.082;5.066;2023-11-21T05:00:34;64.18;;;15.57;;
65759;SDS011;52496;51.082;5.066;2023-11-21T05:03:07;93.00;;;21.40;;
65759;SDS011;52496;51.082;5.066;2023-11-21T05:05:37;115.53;;;22.13;;
65759;SDS011;52496;51.082;5.066;2023-11-21T05:08:08;35.03;;;14.50;;
65759;SDS011;52496;51.082;5.066;2023-11-21T05:10:38;62.65;;;18.33;;
65759;SDS011;52496;51.082;5.066;2023-11-21T05:13:09;138.00;;;22.48;;
65759;SDS011;52496;51.082;5.066;2023-11-21T05:15:40;53.33;;;16.23;;
65759;SDS011;52496;51.082;5.066;2023-11-21T05:18:11;94.00;;;22.73;;
65759;SDS011;52496;51.082;5.066;2023-11-21T05:20:44;57.20;;;16.75;;
65759;SDS011;52496;51.082;5.066;2023-11-21T05:23:15;54.58;;;16.77;;
65759;SDS011;52496;51.082;5.066;2023-11-21T05:25:46;66.20;;;18.00;;
65759;SDS011;52496;51.082;5.066;2023-11-21T05:28:16;53.20;;;17.83;;
65759;SDS011;52496;51.082;5.066;2023-11-21T05:30:47;44.15;;;15.55;;
65759;SDS011;52496;51.082;5.066;2023-11-21T05:33:17;74.00;;;19.33;;
65759;SDS011;52496;51.082;5.066;2023-11-21T05:35:48;51.10;;;14.70;;
65759;SDS011;52496;51.082;5.066;2023-11-21T05:38:19;63.53;;;17.95;;
65759;SDS011;52496;51.082;5.066;2023-11-21T05:40:52;58.17;;;17.67;;
65759;SDS011;52496;51.082;5.066;2023-11-21T05:43:22;62.50;;;17.83;;
65759;SDS011;52496;51.082;5.066;2023-11-21T05:45:53;120.25;;;23.60;;
65759;SDS011;52496;51.082;5.066;2023-11-21T05:48:23;54.28;;;17.02;;
65759;SDS011;52496;51.082;5.066;2023-11-21T05:50:55;48.00;;;15.80;;
65759;SDS011;52496;51.082;5.066;2023-11-21T05:53:26;72.80;;;18.80;;
65759;SDS011;52496;51.082;5.066;2023-11-21T05:55:56;50.90;;;18.23;;
65759;SDS011;52496;51.082;5.066;2023-11-21T05:58:28;50.35;;;17.17;;
65759;SDS011;52496;51.082;5.066;2023-11-21T06:00:58;65.28;;;18.70;;
65759;SDS011;52496;51.082;5.066;2023-11-21T06:03:29;47.55;;;16.33;;
65759;SDS011;52496;51.082;5.066;2023-11-21T06:05:59;58.45;;;18.52;;
65759;SDS011;52496;51.082;5.066;2023-11-21T06:08:31;51.55;;;19.35;;
65759;SDS011;52496;51.082;5.066;2023-11-21T06:11:01;50.35;;;18.85;;
65759;SDS011;52496;51.082;5.066;2023-11-21T06:13:32;57.08;;;17.92;;
65759;SDS011;52496;51.082;5.066;2023-11-21T06:16:03;42.72;;;15.38;;
65759;SDS011;52496;51.082;5.066;2023-11-21T06:18:34;52.42;;;18.33;;
65759;SDS011;52496;51.082;5.066;2023-11-21T06:21:05;52.20;;;16.92;;
65759;SDS011;52496;51.082;5.066;2023-11-21T06:23:36;54.00;;;17.42;;
65759;SDS011;52496;51.082;5.066;2023-11-21T06:26:06;39.63;;;15.88;;
65759;SDS011;52496;51.082;5.066;2023-11-21T06:28:38;49.50;;;18.85;;
65759;SDS011;52496;51.082;5.066;2023-11-21T06:31:08;58.10;;;19.95;;
65759;SDS011;52496;51.082;5.066;2023-11-21T06:33:40;52.33;;;16.52;;
65759;SDS011;52496;51.082;5.066;2023-11-21T06:36:11;65.22;;;19.58;;
65759;SDS011;52496;51.082;5.066;2023-11-21T06:38:41;49.90;;;17.63;;
65759;SDS011;52496;51.082;5.066;2023-11-21T06:41:12;45.28;;;16.35;;
65759;SDS011;52496;51.082;5.066;2023-11-21T06:43:46;68.18;;;19.10;;
65759;SDS011;52496;51.082;5.066;2023-11-21T06:46:17;40.13;;;16.40;;
65759;SDS011;52496;51.082;5.066;2023-11-21T06:48:49;46.00;;;16.10;;
65759;SDS011;52496;51.082;5.066;2023-11-21T06:51:20;58.22;;;17.85;;
65759;SDS011;52496;51.082;5.066;2023-11-21T06:53:51;42.45;;;15.02;;
65759;SDS011;52496;51.082;5.066;2023-11-21T06:56:21;47.47;;;17.88;;
65759;SDS011;52496;51.082;5.066;2023-11-21T06:58:51;36.75;;;15.07;;
65759;SDS011;52496;51.082;5.066;2023-11-21T07:01:24;54.20;;;17.77;;
65759;SDS011;52496;51.082;5.066;2023-11-21T07:03:55;47.67;;;15.98;;
65759;SDS011;52496;51.082;5.066;2023-11-21T07:06:25;49.85;;;17.65;;
65759;SDS011;52496;51.082;5.066;2023-11-21T07:08:56;49.55;;;16.58;;
65759;SDS011;52496;51.082;5.066;2023-11-21T07:11:27;48.53;;;18.77;;
65759;SDS011;52496;51.082;5.066;2023-11-21T07:13:57;56.38;;;17.23;;
65759;SDS011;52496;51.082;5.066;2023-11-21T07:16:28;51.90;;;16.38;;
65759;SDS011;52496;51.082;5.066;2023-11-21T07:19:00;42.33;;;15.10;;
65759;SDS011;52496;51.082;5.066;2023-11-21T07:21:30;44.38;;;16.83;;
65759;SDS011;52496;51.082;5.066;2023-11-21T07:24:04;52.70;;;16.20;;
65759;SDS011;52496;51.082;5.066;2023-11-21T07:26:36;40.58;;;15.77;;
65759;SDS011;52496;51.082;5.066;2023-11-21T07:29:06;44.63;;;17.00;;
65759;SDS011;52496;51.082;5.066;2023-11-21T07:31:37;41.13;;;14.85;;
65759;SDS011;52496;51.082;5.066;2023-11-21T07:34:08;40.88;;;14.15;;
65759;SDS011;52496;51.082;5.066;2023-11-21T07:36:38;42.33;;;16.08;;
65759;SDS011;52496;51.082;5.066;2023-11-21T07:39:09;44.33;;;17.30;;
65759;SDS011;52496;51.082;5.066;2023-11-21T07:41:40;45.42;;;17.10;;
65759;SDS011;52496;51.082;5.066;2023-11-21T07:44:15;43.17;;;15.15;;
65759;SDS011;52496;51.082;5.066;2023-11-21T07:46:48;44.72;;;15.23;;
65759;SDS011;52496;51.082;5.066;2023-11-21T07:49:19;53.53;;;16.33;;
65759;SDS011;52496;51.082;5.066;2023-11-21T07:51:51;46.58;;;14.45;;
65759;SDS011;52496;51.082;5.066;2023-11-21T07:54:21;37.92;;;15.85;;
65759;SDS011;52496;51.082;5.066;2023-11-21T07:56:52;43.50;;;15.82;;
65759;SDS011;52496;51.082;5.066;2023-11-21T07:59:23;65.43;;;18.38;;
65759;SDS011;52496;51.082;5.066;2023-11-21T08:01:53;43.42;;;13.68;;
65759;SDS011;52496;51.082;5.066;2023-11-21T08:04:24;48.97;;;16.55;;
65759;SDS011;52496;51.082;5.066;2023-11-21T08:06:54;42.85;;;15.95;;
65759;SDS011;52496;51.082;5.066;2023-11-21T08:09:25;67.13;;;17.67;;
65759;SDS011;52496;51.082;5.066;2023-11-21T08:11:55;47.78;;;15.77;;
65759;SDS011;52496;51.082;5.066;2023-11-21T08:14:26;38.90;;;15.63;;
65759;SDS011;52496;51.082;5.066;2023-11-21T08:16:57;42.17;;;14.93;;
65759;SDS011;52496;51.082;5.066;2023-11-21T08:19:27;37.28;;;15.50;;
65759;SDS011;52496;51.082;5.066;2023-11-21T08:21:58;48.33;;;17.45;;
65759;SDS011;52496;51.082;5.066;2023-11-21T08:24:29;42.70;;;16.40;;
65759;SDS011;52496;51.082;5.066;2023-11-21T08:26:59;50.30;;;16.63;;
65759;SDS011;52496;51.082;5.066;2023-11-21T08:29:30;51.30;;;17.02;;
65759;SDS011;52496;51.082;5.066;2023-11-21T08:32:02;51.80;;;16.73;;
65759;SDS011;52496;51.082;5.066;2023-11-21T08:34:32;42.60;;;17.08;;
65759;SDS011;52496;51.082;5.066;2023-11-21T08:37:03;44.95;;;19.25;;
65759;SDS011;52496;51.082;5.066;2023-11-21T08:39:33;44.15;;;16.52;;
65759;SDS011;52496;51.082;5.066;2023-11-21T08:42:04;49.22;;;19.02;;
65759;SDS011;52496;51.082;5.066;2023-11-21T08:44:34;44.60;;;17.35;;
65759;SDS011;52496;51.082;5.066;2023-11-21T08:47:05;48.13;;;16.95;;
65759;SDS011;52496;51.082;5.066;2023-11-21T08:49:36;46.45;;;17.02;;
65759;SDS011;52496;51.082;5.066;2023-11-21T08:52:06;49.05;;;18.50;;
65759;SDS011;52496;51.082;5.066;2023-11-21T08:54:37;38.03;;;17.92;;
65759;SDS011;52496;51.082;5.066;2023-11-21T08:57:07;66.43;;;17.92;;
65759;SDS011;52496;51.082;5.066;2023-11-21T08:59:38;51.83;;;19.48;;
65759;SDS011;52496;51.082;5.066;2023-11-21T09:02:09;44.45;;;19.73;;
65759;SDS011;52496;51.082;5.066;2023-11-21T09:04:39;53.63;;;16.77;;
65759;SDS011;52496;51.082;5.066;2023-11-21T09:07:10;49.78;;;18.10;;
65759;SDS011;52496;51.082;5.066;2023-11-21T09:09:40;51.05;;;19.48;;
65759;SDS011;52496;51.082;5.066;2023-11-21T09:12:11;56.47;;;20.00;;
65759;SDS011;52496;51.082;5.066;2023-11-21T09:14:42;46.30;;;18.13;;
65759;SDS011;52496;51.082;5.066;2023-11-21T09:17:14;61.17;;;20.88;;
65759;SDS011;52496;51.082;5.066;2023-11-21T09:19:44;57.15;;;20.38;;
65759;SDS011;52496;51.082;5.066;2023-11-21T09:22:19;64.75;;;21.55;;
65759;SDS011;52496;51.082;5.066;2023-11-21T09:24:50;54.65;;;17.02;;
65759;SDS011;52496;51.082;5.066;2023-11-21T09:27:21;58.33;;;19.92;;
65759;SDS011;52496;51.082;5.066;2023-11-21T09:29:51;50.33;;;18.55;;
65759;SDS011;52496;51.082;5.066;2023-11-21T09:32:23;49.97;;;18.88;;
65759;SDS011;52496;51.082;5.066;2023-11-21T09:34:54;40.05;;;15.80;;
65759;SDS011;52496;51.082;5.066;2023-11-21T09:37:28;43.30;;;18.45;;
65759;SDS011;52496;51.082;5.066;2023-11-21T09:39:58;66.57;;;19.60;;
65759;SDS011;52496;51.082;5.066;2023-11-21T09:42:30;39.67;;;15.80;;
65759;SDS011;52496;51.082;5.066;2023-11-21T09:47:50;42.42;;;16.60;;
65759;SDS011;52496;51.082;5.066;2023-11-21T09:50:26;35.17;;;15.70;;
65759;SDS011;52496;51.082;5.066;2023-11-21T09:55:34;35.53;;;14.50;;
65759;SDS011;52496;51.082;5.066;2023-11-21T09:58:10;38.08;;;13.25;;
65759;SDS011;52496;51.082;5.066;2023-11-21T10:00:45;39.35;;;15.90;;
65759;SDS011;52496;51.082;5.066;2023-11-21T10:03:17;43.72;;;15.15;;
65759;SDS011;52496;51.082;5.066;2023-11-21T10:05:48;39.55;;;15.25;;
65759;SDS011;52496;51.082;5.066;2023-11-21T10:08:20;51.55;;;16.55;;
65759;SDS011;52496;51.082;5.066;2023-11-21T10:10:53;34.85;;;14.55;;
65759;SDS011;52496;51.082;5.066;2023-11-21T10:13:25;32.80;;;13.02;;
65759;SDS011;52496;51.082;5.066;2023-11-21T10:16:00;37.50;;;15.35;;
65759;SDS011;52496;51.082;5.066;2023-11-21T10:18:35;33.22;;;12.82;;
65759;SDS011;52496;51.082;5.066;2023-11-21T10:21:08;39.22;;;13.88;;
65759;SDS011;52496;51.082;5.066;2023-11-21T10:23:39;34.00;;;14.75;;
65759;SDS011;52496;51.082;5.066;2023-11-21T10:26:11;30.75;;;12.98;;
65759;SDS011;52496;51.082;5.066;2023-11-21T10:28:56;31.73;;;12.93;;
65759;SDS011;52496;51.082;5.066;2023-11-21T10:31:27;29.63;;;11.98;;
65759;SDS011;52496;51.082;5.066;2023-11-21T10:34:20;30.35;;;13.25;;
65759;SDS011;52496;51.082;5.066;2023-11-21T10:36:51;29.77;;;13.55;;
65759;SDS011;52496;51.082;5.066;2023-11-21T10:39:21;30.48;;;14.30;;
65759;SDS011;52496;51.082;5.066;2023-11-21T10:41:54;31.25;;;13.27;;
65759;SDS011;52496;51.082;5.066;2023-11-21T10:44:25;37.88;;;14.07;;
65759;SDS011;52496;51.082;5.066;2023-11-21T10:46:56;34.67;;;13.80;;
65759;SDS011;52496;51.082;5.066;2023-11-21T10:49:27;33.72;;;15.25;;
65759;SDS011;52496;51.082;5.066;2023-11-21T10:51:58;32.63;;;14.27;;
65759;SDS011;52496;51.082;5.066;2023-11-21T10:54:29;27.88;;;12.70;;
65759;SDS011;52496;51.082;5.066;2023-11-21T10:57:00;39.05;;;13.95;;
65759;SDS011;52496;51.082;5.066;2023-11-21T10:59:32;35.15;;;15.43;;
65759;SDS011;52496;51.082;5.066;2023-11-21T11:02:06;38.30;;;16.27;;
65759;SDS011;52496;51.082;5.066;2023-11-21T11:04:53;32.37;;;14.37;;
65759;SDS011;52496;51.082;5.066;2023-11-21T11:07:27;31.88;;;14.25;;
65759;SDS011;52496;51.082;5.066;2023-11-21T11:09:58;41.58;;;13.95;;
65759;SDS011;52496;51.082;5.066;2023-11-21T11:12:29;34.67;;;14.68;;
65759;SDS011;52496;51.082;5.066;2023-11-21T11:15:01;36.20;;;14.90;;
65759;SDS011;52496;51.082;5.066;2023-11-21T11:17:33;38.40;;;14.32;;
65759;SDS011;52496;51.082;5.066;2023-11-21T11:20:04;36.90;;;13.90;;
65759;SDS011;52496;51.082;5.066;2023-11-21T11:22:41;34.78;;;14.05;;
65759;SDS011;52496;51.082;5.066;2023-11-21T11:28:27;31.35;;;12.50;;
65759;SDS011;52496;51.082;5.066;2023-11-21T11:36:54;29.73;;;13.27;;
65759;SDS011;52496;51.082;5.066;2023-11-21T11:39:35;33.50;;;12.77;;
65759;SDS011;52496;51.082;5.066;2023-11-21T11:42:07;38.13;;;12.52;;
65759;SDS011;52496;51.082;5.066;2023-11-21T11:44:48;32.90;;;14.10;;
65759;SDS011;52496;51.082;5.066;2023-11-21T11:50:02;42.05;;;14.15;;
65759;SDS011;52496;51.082;5.066;2023-11-21T11:52:39;30.63;;;12.52;;
65759;SDS011;52496;51.082;5.066;2023-11-21T11:55:11;25.02;;;11.52;;
65759;SDS011;52496;51.082;5.066;2023-11-21T11:57:43;30.40;;;12.25;;
65759;SDS011;52496;51.082;5.066;2023-11-21T12:00:19;27.30;;;10.35;;
65759;SDS011;52496;51.082;5.066;2023-11-21T12:02:55;33.85;;;12.50;;
65759;SDS011;52496;51.082;5.066;2023-11-21T12:05:29;23.65;;;9.90;;
65759;SDS011;52496;51.082;5.066;2023-11-21T12:08:03;23.00;;;10.07;;
65759;SDS011;52496;51.082;5.066;2023-11-21T12:10:35;27.83;;;10.23;;
65759;SDS011;52496;51.082;5.066;2023-11-21T12:13:07;18.88;;;9.48;;
65759;SDS011;52496;51.082;5.066;2023-11-21T12:15:43;23.63;;;10.57;;
65759;SDS011;52496;51.082;5.066;2023-11-21T12:18:13;24.13;;;9.43;;
65759;SDS011;52496;51.082;5.066;2023-11-21T12:20:44;23.73;;;9.13;;
65759;SDS011;52496;51.082;5.066;2023-11-21T12:23:17;18.70;;;8.73;;
65759;SDS011;52496;51.082;5.066;2023-11-21T12:25:47;17.88;;;8.77;;
65759;SDS011;52496;51.082;5.066;2023-11-21T12:28:18;20.20;;;8.38;;
65759;SDS011;52496;51.082;5.066;2023-11-21T12:30:49;15.48;;;7.85;;
65759;SDS011;52496;51.082;5.066;2023-11-21T12:33:20;17.42;;;8.75;;
65759;SDS011;52496;51.082;5.066;2023-11-21T12:35:50;19.55;;;7.57;;
65759;SDS011;52496;51.082;5.066;2023-11-21T12:38:22;17.65;;;9.02;;
65759;SDS011;52496;51.082;5.066;2023-11-21T12:40:54;15.75;;;8.10;;
65759;SDS011;52496;51.082;5.066;2023-11-21T12:43:28;17.05;;;7.80;;
65759;SDS011;52496;51.082;5.066;2023-11-21T12:46:12;11.95;;;5.93;;
65759;SDS011;52496;51.082;5.066;2023-11-21T12:48:44;15.35;;;7.95;;
65759;SDS011;52496;51.082;5.066;2023-11-21T12:51:18;15.52;;;6.80;;
65759;SDS011;52496;51.082;5.066;2023-11-21T12:53:49;12.30;;;6.88;;
65759;SDS011;52496;51.082;5.066;2023-11-21T12:56:21;14.90;;;6.72;;
65759;SDS011;52496;51.082;5.066;2023-11-21T12:58:53;15.55;;;7.70;;
65759;SDS011;52496;51.082;5.066;2023-11-21T13:01:27;15.25;;;7.35;;
65759;SDS011;52496;51.082;5.066;2023-11-21T13:03:59;14.27;;;6.65;;
65759;SDS011;52496;51.082;5.066;2023-11-21T13:06:30;14.82;;;6.75;;
65759;SDS011;52496;51.082;5.066;2023-11-21T13:09:04;12.68;;;6.78;;
65759;SDS011;52496;51.082;5.066;2023-11-21T13:11:35;15.63;;;6.78;;
65759;SDS011;52496;51.082;5.066;2023-11-21T13:14:06;14.50;;;7.07;;
65759;SDS011;52496;51.082;5.066;2023-11-21T13:16:37;19.10;;;7.75;;
65759;SDS011;52496;51.082;5.066;2023-11-21T13:19:09;13.80;;;6.40;;
65759;SDS011;52496;51.082;5.066;2023-11-21T13:21:39;13.75;;;8.38;;
65759;SDS011;52496;51.082;5.066;2023-11-21T13:24:10;15.98;;;8.15;;
65759;SDS011;52496;51.082;5.066;2023-11-21T13:26:41;17.40;;;7.97;;
65759;SDS011;52496;51.082;5.066;2023-11-21T13:29:12;13.27;;;6.43;;
65759;SDS011;52496;51.082;5.066;2023-11-21T13:31:43;11.95;;;6.03;;
65759;SDS011;52496;51.082;5.066;2023-11-21T13:34:13;16.15;;;7.18;;
65759;SDS011;52496;51.082;5.066;2023-11-21T13:36:44;12.93;;;6.95;;
65759;SDS011;52496;51.082;5.066;2023-11-21T13:39:15;15.70;;;6.50;;
65759;SDS011;52496;51.082;5.066;2023-11-21T13:41:47;13.63;;;6.65;;
65759;SDS011;52496;51.082;5.066;2023-11-21T13:44:24;12.00;;;6.30;;
65759;SDS011;52496;51.082;5.066;2023-11-21T13:47:04;11.52;;;5.75;;
65759;SDS011;52496;51.082;5.066;2023-11-21T13:49:36;19.23;;;6.50;;
65759;SDS011;52496;51.082;5.066;2023-11-21T13:52:10;13.82;;;6.63;;
65759;SDS011;52496;51.082;5.066;2023-11-21T13:54:45;14.95;;;5.93;;
65759;SDS011;52496;51.082;5.066;2023-11-21T13:57:16;14.68;;;6.28;;
65759;SDS011;52496;51.082;5.066;2023-11-21T13:59:46;9.70;;;5.05;;
65759;SDS011;52496;51.082;5.066;2023-11-21T14:02:17;11.90;;;5.13;;
65759;SDS011;52496;51.082;5.066;2023-11-21T14:04:48;9.13;;;4.45;;
65759;SDS011;52496;51.082;5.066;2023-11-21T14:07:26;10.18;;;5.03;;
65759;SDS011;52496;51.082;5.066;2023-11-21T14:10:05;9.25;;;4.93;;
65759;SDS011;52496;51.082;5.066;2023-11-21T14:12:44;8.73;;;4.57;;
65759;SDS011;52496;51.082;5.066;2023-11-21T14:15:15;8.88;;;4.22;;
65759;SDS011;52496;51.082;5.066;2023-11-21T14:17:48;8.43;;;4.80;;
65759;SDS011;52496;51.082;5.066;2023-11-21T14:20:19;9.48;;;5.10;;
65759;SDS011;52496;51.082;5.066;2023-11-21T14:22:51;9.50;;;4.97;;
65759;SDS011;52496;51.082;5.066;2023-11-21T14:25:22;9.57;;;5.03;;
65759;SDS011;52496;51.082;5.066;2023-11-21T14:27:52;16.45;;;5.35;;
65759;SDS011;52496;51.082;5.066;2023-11-21T14:30:23;10.38;;;4.80;;
65759;SDS011;52496;51.082;5.066;2023-11-21T14:32:53;13.55;;;5.55;;
65759;SDS011;52496;51.082;5.066;2023-11-21T14:35:24;12.77;;;5.78;;
65759;SDS011;52496;51.082;5.066;2023-11-21T14:37:54;10.40;;;5.07;;
65759;SDS011;52496;51.082;5.066;2023-11-21T14:40:25;8.88;;;4.82;;
65759;SDS011;52496;51.082;5.066;2023-11-21T14:43:04;12.57;;;5.95;;
65759;SDS011;52496;51.082;5.066;2023-11-21T14:45:38;13.07;;;6.25;;
65759;SDS011;52496;51.082;5.066;2023-11-21T14:48:09;14.50;;;6.00;;
65759;SDS011;52496;51.082;5.066;2023-11-21T14:50:46;13.35;;;6.47;;
65759;SDS011;52496;51.082;5.066;2023-11-21T14:53:39;12.90;;;6.43;;
65759;SDS011;52496;51.082;5.066;2023-11-21T14:56:15;14.40;;;7.05;;
65759;SDS011;52496;51.082;5.066;2023-11-21T14:58:53;13.20;;;6.45;;
65759;SDS011;52496;51.082;5.066;2023-11-21T15:01:26;15.63;;;7.40;;
65759;SDS011;52496;51.082;5.066;2023-11-21T15:04:23;16.73;;;7.10;;
65759;SDS011;52496;51.082;5.066;2023-11-21T15:07:05;13.55;;;6.78;;
65759;SDS011;52496;51.082;5.066;2023-11-21T15:09:37;16.33;;;6.90;;
65759;SDS011;52496;51.082;5.066;2023-11-21T15:12:15;15.27;;;7.20;;
65759;SDS011;52496;51.082;5.066;2023-11-21T15:14:46;19.15;;;7.95;;
65759;SDS011;52496;51.082;5.066;2023-11-21T15:17:20;14.98;;;7.43;;
65759;SDS011;52496;51.082;5.066;2023-11-21T15:19:56;14.02;;;6.47;;
65759;SDS011;52496;51.082;5.066;2023-11-21T15:22:27;13.25;;;6.45;;
65759;SDS011;52496;51.082;5.066;2023-11-21T15:24:58;13.20;;;7.25;;
65759;SDS011;52496;51.082;5.066;2023-11-21T15:27:30;13.75;;;7.10;;
65759;SDS011;52496;51.082;5.066;2023-11-21T15:30:00;14.25;;;7.30;;